METAR Data
IDs: Format: Raw Decoded Include TAF

Data at: 1311 UTC 23 Mar 2019

NZAA 231300Z AUTO 07002KT 9999 NCD 17/17 Q1023 NOSIG
NZAA 231230Z AUTO 01003KT 9999 FEW016/// SCT031/// 18/17 Q1023 NOSIG
NZAA 231200Z AUTO 04002KT 9999 SCT015/// 17/16 Q1023 NOSIG
NZAA 231130Z AUTO 05003KT 9999 FEW014/// 17/16 Q1023 NOSIG
NZAA 231100Z AUTO 06004KT 9999 NCD 18/17 Q1023 NOSIG
NZAA 231030Z AUTO 07003KT 9999 NCD 17/16 Q1023 NOSIG

TAF NZAA 231104Z 2312/2412 14005KT 9999 FEW025
  PROB40 2314/2322 0500 FG
  FM232200 02015KT 9999 -SHRA SCT025
  FM240900 02005KT 9999 SCT040